createdAt,value
2023-01-20T00:01:20.030Z,39.47
2023-01-20T00:03:48.004Z,39.45
2023-01-20T00:06:14.983Z,41.97
2023-01-20T00:08:41.688Z,39.97
2023-01-20T00:11:11.177Z,36.45
2023-01-20T00:13:39.039Z,34.08
2023-01-20T00:16:08.204Z,33.90
2023-01-20T00:18:35.436Z,35.38
2023-01-20T00:21:04.363Z,32.47
2023-01-20T00:23:31.495Z,31.65
2023-01-20T00:25:58.084Z,33.10
2023-01-20T00:28:24.692Z,33.90
2023-01-20T00:30:51.286Z,36.90
2023-01-20T00:33:17.922Z,35.03
2023-01-20T00:35:44.491Z,42.80
2023-01-20T00:38:11.034Z,35.50
2023-01-20T00:40:37.589Z,33.13
2023-01-20T00:43:04.281Z,31.05
2023-01-20T00:45:30.846Z,36.03
2023-01-20T00:47:57.409Z,31.15
2023-01-20T00:50:24.006Z,34.25
2023-01-20T00:52:50.569Z,33.45
2023-01-20T00:55:17.143Z,28.98
2023-01-20T00:57:43.669Z,31.10
2023-01-20T01:00:10.742Z,32.58
2023-01-20T01:02:39.679Z,32.58
2023-01-20T01:05:06.733Z,33.50
2023-01-20T01:07:33.301Z,35.67
2023-01-20T01:09:59.913Z,34.70
2023-01-20T01:12:26.526Z,30.33
2023-01-20T01:14:53.134Z,38.88
2023-01-20T01:17:19.766Z,29.08
2023-01-20T01:19:46.291Z,30.15
2023-01-20T01:22:12.815Z,28.50
2023-01-20T01:24:39.431Z,31.05
2023-01-20T01:27:05.996Z,28.15
2023-01-20T01:29:32.579Z,30.90
2023-01-20T01:31:59.153Z,29.13
2023-01-20T01:34:25.709Z,31.83
2023-01-20T01:36:52.268Z,33.45
2023-01-20T01:39:18.865Z,27.55
2023-01-20T01:41:45.461Z,32.90
2023-01-20T01:44:14.112Z,34.45
2023-01-20T01:46:41.688Z,33.60
2023-01-20T01:49:09.241Z,34.95
2023-01-20T01:51:41.648Z,24.05
2023-01-20T01:54:13.251Z,31.70
2023-01-20T01:56:42.286Z,34.55
2023-01-20T01:59:09.648Z,38.15
2023-01-20T02:01:39.984Z,27.35
2023-01-20T02:04:11.214Z,33.05
2023-01-20T02:06:41.801Z,31.33
2023-01-20T02:09:08.731Z,36.33
2023-01-20T02:11:48.633Z,30.42
2023-01-20T02:14:17.725Z,32.45
2023-01-20T02:17:14.880Z,33.13
2023-01-20T02:20:12.259Z,32.17
2023-01-20T02:25:40.503Z,29.35
2023-01-20T02:28:23.230Z,30.42
2023-01-20T02:31:11.622Z,29.20
2023-01-20T02:33:52.892Z,31.10
2023-01-20T02:36:34.821Z,34.65
2023-01-20T02:39:26.954Z,37.15
2023-01-20T02:42:08.014Z,31.83
2023-01-20T02:44:46.870Z,29.73
2023-01-20T02:47:33.931Z,28.88
2023-01-20T02:50:00.533Z,27.02
2023-01-20T02:52:31.442Z,36.15
2023-01-20T02:55:04.149Z,30.50
2023-01-20T02:57:40.579Z,32.63
2023-01-20T03:02:41.808Z,33.50
2023-01-20T03:05:14.581Z,29.08
2023-01-20T03:07:45.722Z,33.47
2023-01-20T03:10:16.577Z,35.13
2023-01-20T03:12:51.119Z,33.40
2023-01-20T03:15:23.476Z,38.30
2023-01-20T03:17:50.598Z,35.20
2023-01-20T03:20:17.520Z,33.03
2023-01-20T03:22:44.107Z,31.48
2023-01-20T03:25:13.733Z,30.33
2023-01-20T03:27:42.243Z,32.55
2023-01-20T03:30:16.960Z,37.17
2023-01-20T03:32:47.302Z,31.55
2023-01-20T03:35:16.501Z,33.45
2023-01-20T03:37:44.645Z,35.67
2023-01-20T03:40:13.025Z,37.80
2023-01-20T03:43:00.108Z,33.60
2023-01-20T03:45:33.254Z,33.63
2023-01-20T03:48:00.768Z,28.88
2023-01-20T03:50:47.174Z,31.75
2023-01-20T03:53:17.935Z,37.97
2023-01-20T03:55:52.247Z,32.20
2023-01-20T03:58:29.496Z,31.23
2023-01-20T04:00:57.803Z,34.33
2023-01-20T04:03:31.439Z,36.20
2023-01-20T04:06:00.709Z,39.35
2023-01-20T04:08:35.460Z,37.97
2023-01-20T04:11:06.296Z,37.90
2023-01-20T04:13:33.070Z,35.72
2023-01-20T04:16:02.096Z,34.30
2023-01-20T04:18:29.124Z,38.90
2023-01-20T04:21:01.470Z,37.30
2023-01-20T04:23:34.551Z,41.15
2023-01-20T04:26:01.201Z,40.28
2023-01-20T04:28:27.845Z,38.00
2023-01-20T04:30:54.463Z,36.38
2023-01-20T04:33:21.159Z,41.35
2023-01-20T04:35:47.772Z,40.38
2023-01-20T04:38:14.383Z,37.40
2023-01-20T04:40:41.306Z,38.25
2023-01-20T04:43:10.047Z,34.42
2023-01-20T04:45:36.641Z,36.45
2023-01-20T04:48:07.533Z,37.88
2023-01-20T04:50:38.871Z,38.08
2023-01-20T04:53:05.617Z,35.55
2023-01-20T04:55:33.217Z,38.10
2023-01-20T04:57:59.769Z,35.70
2023-01-20T05:00:26.318Z,37.38
2023-01-20T05:02:52.989Z,38.22
2023-01-20T05:05:19.538Z,36.88
2023-01-20T05:07:46.137Z,38.33
2023-01-20T05:10:13.344Z,37.33
2023-01-20T05:12:41.362Z,40.92
2023-01-20T05:15:08.401Z,36.42
2023-01-20T05:17:35.004Z,32.85
2023-01-20T05:20:01.590Z,34.08
2023-01-20T05:22:29.517Z,32.60
2023-01-20T05:24:56.162Z,31.48
2023-01-20T05:27:22.699Z,33.65
2023-01-20T05:29:49.280Z,30.73
2023-01-20T05:32:15.904Z,28.67
2023-01-20T05:34:42.624Z,34.25
2023-01-20T05:37:09.223Z,26.30
2023-01-20T05:39:35.809Z,31.73
2023-01-20T05:42:02.686Z,24.38
2023-01-20T05:44:29.318Z,26.83
2023-01-20T05:46:55.851Z,30.85
2023-01-20T05:49:22.471Z,30.13
2023-01-20T05:51:49.026Z,35.25
2023-01-20T05:54:15.693Z,34.47
2023-01-20T05:56:42.329Z,29.80
2023-01-20T05:59:09.768Z,28.23
2023-01-20T06:01:36.691Z,30.85
2023-01-20T06:04:03.416Z,28.13
2023-01-20T06:06:30.042Z,37.85
2023-01-20T06:08:56.644Z,29.77
2023-01-20T06:11:23.629Z,32.08
2023-01-20T06:13:50.670Z,35.60
2023-01-20T06:16:18.037Z,30.95
2023-01-20T06:18:44.723Z,30.65
2023-01-20T06:21:11.684Z,32.67
2023-01-20T06:23:38.408Z,25.48
2023-01-20T06:26:07.837Z,28.98
2023-01-20T06:28:34.856Z,31.13
2023-01-20T06:31:05.216Z,33.58
2023-01-20T06:33:33.179Z,32.80
2023-01-20T06:36:00.098Z,32.22
2023-01-20T06:38:29.995Z,33.65
2023-01-20T06:40:58.815Z,37.60
2023-01-20T06:43:25.787Z,32.40
2023-01-20T06:45:52.383Z,32.15
2023-01-20T06:48:18.959Z,34.97
2023-01-20T06:50:45.517Z,41.42
2023-01-20T06:53:12.079Z,35.83
2023-01-20T06:55:38.651Z,42.17
2023-01-20T06:58:05.211Z,37.05
2023-01-20T07:00:31.872Z,44.47
2023-01-20T07:02:58.452Z,37.03
2023-01-20T07:05:24.983Z,44.60
2023-01-20T07:07:51.539Z,39.88
2023-01-20T07:10:18.242Z,37.70
2023-01-20T07:12:44.862Z,44.08
2023-01-20T07:15:11.789Z,43.63
2023-01-20T07:17:38.355Z,37.50
2023-01-20T07:20:05.322Z,39.20
2023-01-20T07:22:31.895Z,46.17
2023-01-20T07:24:58.489Z,42.85
2023-01-20T07:27:25.102Z,42.83
2023-01-20T07:29:51.678Z,39.65
2023-01-20T07:32:18.291Z,42.20
2023-01-20T07:34:44.879Z,38.88
2023-01-20T07:37:11.536Z,43.53
2023-01-20T07:39:38.215Z,45.67
2023-01-20T07:42:04.876Z,49.65
2023-01-20T07:44:32.804Z,41.00
2023-01-20T07:46:59.517Z,41.60
2023-01-20T07:49:26.269Z,50.47
2023-01-20T07:51:52.878Z,46.70
2023-01-20T07:54:22.650Z,46.35
2023-01-20T07:56:49.231Z,46.50
2023-01-20T07:59:18.985Z,45.42
2023-01-20T08:01:45.732Z,49.25
2023-01-20T08:04:13.209Z,48.90
2023-01-20T08:06:40.019Z,45.97
2023-01-20T08:09:09.658Z,50.92
2023-01-20T08:11:36.237Z,43.95
2023-01-20T08:14:02.795Z,45.28
2023-01-20T08:16:29.464Z,46.15
2023-01-20T08:18:56.097Z,44.22
2023-01-20T08:21:26.615Z,51.88
2023-01-20T08:23:55.654Z,44.72
2023-01-20T08:26:24.938Z,45.33
2023-01-20T08:28:52.116Z,47.28
2023-01-20T08:31:21.392Z,45.17
2023-01-20T08:33:48.867Z,52.13
2023-01-20T08:36:18.425Z,46.40
2023-01-20T08:38:45.483Z,44.58
2023-01-20T08:41:16.416Z,43.50
2023-01-20T08:43:43.623Z,43.97
2023-01-20T08:46:12.874Z,49.33
2023-01-20T08:48:41.582Z,45.13
2023-01-20T08:51:14.369Z,43.38
2023-01-20T08:53:42.088Z,41.50
2023-01-20T08:56:09.772Z,47.95
2023-01-20T08:58:36.578Z,43.25
2023-01-20T09:01:08.644Z,38.80
2023-01-20T09:03:35.356Z,44.50
2023-01-20T09:06:03.452Z,41.35
2023-01-20T09:08:30.636Z,37.75
2023-01-20T09:11:14.069Z,40.75
2023-01-20T09:13:41.313Z,37.75
2023-01-20T09:16:11.042Z,42.08
2023-01-20T09:18:37.700Z,43.83
2023-01-20T09:21:06.839Z,41.47
2023-01-20T09:23:35.399Z,43.65
2023-01-20T09:26:04.682Z,36.70
2023-01-20T09:28:31.446Z,43.92
2023-01-20T09:31:04.455Z,45.38
2023-01-20T09:33:32.336Z,44.50
2023-01-20T09:36:00.209Z,43.58
2023-01-20T09:38:42.910Z,37.40
2023-01-20T09:41:24.640Z,41.28
2023-01-20T09:44:04.448Z,40.47
2023-01-20T09:46:37.930Z,39.53
2023-01-20T09:49:44.389Z,40.72
2023-01-20T09:52:38.948Z,41.35
2023-01-20T09:55:14.191Z,40.88
2023-01-20T09:57:48.888Z,43.22
2023-01-20T10:00:21.851Z,43.65
2023-01-20T10:02:54.295Z,43.70
2023-01-20T10:05:25.775Z,44.30
2023-01-20T10:07:58.458Z,46.95
2023-01-20T10:10:31.030Z,45.00
2023-01-20T10:13:19.492Z,42.47
2023-01-20T10:15:52.742Z,49.08
2023-01-20T10:18:28.592Z,41.47
2023-01-20T10:21:12.657Z,43.38
2023-01-20T10:23:55.067Z,48.17
2023-01-20T10:26:42.234Z,52.95
2023-01-20T10:29:17.487Z,46.47
2023-01-20T10:31:52.220Z,46.95
2023-01-20T10:34:20.869Z,50.03
2023-01-20T10:36:56.183Z,44.38
2023-01-20T10:39:31.087Z,43.33
2023-01-20T10:42:12.330Z,50.83
2023-01-20T10:44:39.729Z,48.97
2023-01-20T10:47:17.527Z,49.22
2023-01-20T10:49:52.867Z,44.60
2023-01-20T10:52:35.026Z,56.50
2023-01-20T10:55:25.077Z,55.63
2023-01-20T10:58:00.637Z,51.08
2023-01-20T11:00:30.171Z,59.30
2023-01-20T11:03:00.059Z,52.58
2023-01-20T11:05:31.148Z,51.35
2023-01-20T11:08:00.406Z,56.58
2023-01-20T11:10:29.653Z,55.83
2023-01-20T11:12:59.696Z,56.25
2023-01-20T11:15:33.710Z,51.78
2023-01-20T11:18:15.579Z,51.30
2023-01-20T11:20:46.968Z,55.90
2023-01-20T11:23:44.198Z,52.38
2023-01-20T11:26:29.183Z,53.10
2023-01-20T11:29:00.427Z,52.15
2023-01-20T11:31:47.701Z,58.30
2023-01-20T11:34:31.317Z,56.55
2023-01-20T11:37:19.770Z,56.80
2023-01-20T11:40:00.595Z,56.88
2023-01-20T11:42:30.854Z,58.92
2023-01-20T11:45:19.801Z,58.05
2023-01-20T11:48:00.792Z,54.15
2023-01-20T11:50:30.121Z,58.45
2023-01-20T11:53:16.649Z,50.38
2023-01-20T11:55:53.658Z,54.97
2023-01-20T11:58:24.911Z,53.92
2023-01-20T12:01:08.007Z,54.35
2023-01-20T12:04:05.222Z,55.30
2023-01-20T12:06:43.380Z,56.65
2023-01-20T12:09:15.724Z,46.92
2023-01-20T12:11:56.395Z,51.40
2023-01-20T12:14:29.774Z,55.30
2023-01-20T12:17:05.518Z,55.80
2023-01-20T12:19:41.008Z,52.38
2023-01-20T12:22:14.476Z,56.40
2023-01-20T12:25:07.367Z,58.33
2023-01-20T12:27:36.912Z,54.55
2023-01-20T12:30:16.489Z,49.92
2023-01-20T12:32:43.254Z,57.28
2023-01-20T12:35:14.627Z,58.70
2023-01-20T12:37:50.364Z,57.83
2023-01-20T12:40:35.542Z,67.88
2023-01-20T12:43:09.279Z,58.47
2023-01-20T12:45:53.240Z,62.25
2023-01-20T12:48:35.570Z,58.53
2023-01-20T12:51:22.652Z,63.50
2023-01-20T12:54:10.824Z,64.65
2023-01-20T12:56:47.614Z,64.78
2023-01-20T12:59:25.060Z,58.60
2023-01-20T13:01:59.903Z,65.13
2023-01-20T13:04:56.958Z,62.45
2023-01-20T13:07:52.569Z,68.30
2023-01-20T13:10:42.241Z,57.67
2023-01-20T13:13:17.965Z,62.42
2023-01-20T13:15:48.509Z,57.90
2023-01-20T13:18:37.019Z,55.58
2023-01-20T13:21:03.750Z,58.38
2023-01-20T13:23:35.600Z,54.20
2023-01-20T13:26:05.186Z,59.50
2023-01-20T13:28:32.250Z,57.20
2023-01-20T13:31:00.576Z,57.17
2023-01-20T13:33:42.708Z,55.40
2023-01-20T13:36:17.935Z,56.88
2023-01-20T13:38:45.590Z,60.33
2023-01-20T13:41:32.556Z,53.97
2023-01-20T13:46:44.329Z,53.10
2023-01-20T13:49:13.190Z,59.17
2023-01-20T13:51:45.998Z,53.80
2023-01-20T13:54:35.408Z,57.95
2023-01-20T13:57:35.653Z,57.45
2023-01-20T14:00:08.017Z,57.58
2023-01-20T14:02:37.463Z,56.58
2023-01-20T14:05:18.573Z,56.72
2023-01-20T14:07:45.262Z,57.55
2023-01-20T14:10:12.593Z,60.75
2023-01-20T14:12:41.427Z,56.03
2023-01-20T14:15:25.626Z,61.70
2023-01-20T14:17:55.204Z,59.55
2023-01-20T14:20:24.042Z,56.65
2023-01-20T14:22:50.691Z,60.25
2023-01-20T14:25:26.848Z,62.28
2023-01-20T14:27:53.583Z,59.60
2023-01-20T14:30:26.193Z,58.83
2023-01-20T14:32:53.626Z,59.45
2023-01-20T14:35:28.987Z,57.47
2023-01-20T14:37:55.798Z,59.33
2023-01-20T14:40:37.685Z,53.80
2023-01-20T14:43:14.389Z,62.83
2023-01-20T14:45:45.108Z,52.63
2023-01-20T14:48:24.739Z,52.80
2023-01-20T14:51:02.607Z,53.70
2023-01-20T14:53:29.259Z,53.42
2023-01-20T14:56:01.208Z,59.58
2023-01-20T14:58:30.568Z,58.95
2023-01-20T15:01:02.145Z,53.08
2023-01-20T15:03:30.129Z,54.92
2023-01-20T15:05:58.463Z,60.65
2023-01-20T15:08:26.722Z,54.40
2023-01-20T15:11:09.859Z,61.28
2023-01-20T15:13:38.988Z,60.17
2023-01-20T15:16:18.017Z,58.38
2023-01-20T15:19:05.225Z,59.58
2023-01-20T15:21:35.311Z,64.53
2023-01-20T15:24:17.297Z,64.82
2023-01-20T15:26:45.345Z,63.70
2023-01-20T15:29:29.915Z,64.05
2023-01-20T15:31:58.747Z,60.70
2023-01-20T15:34:27.530Z,62.50
2023-01-20T15:36:55.729Z,62.47
2023-01-20T15:39:25.971Z,66.07
2023-01-20T15:41:55.760Z,55.13
2023-01-20T15:44:24.373Z,57.60
2023-01-20T15:46:51.727Z,64.22
2023-01-20T15:49:18.776Z,62.28
2023-01-20T15:51:45.568Z,62.38
2023-01-20T15:54:13.746Z,56.90
2023-01-20T15:56:45.142Z,64.00
2023-01-20T15:59:12.437Z,64.50
2023-01-20T16:01:42.677Z,72.53
2023-01-20T16:04:09.511Z,61.28
2023-01-20T16:06:37.565Z,68.68
2023-01-20T16:09:16.727Z,71.30
2023-01-20T16:11:43.309Z,70.43
2023-01-20T16:14:09.864Z,70.72
2023-01-20T16:16:36.602Z,65.55
2023-01-20T16:19:04.721Z,59.38
2023-01-20T16:21:31.979Z,62.80
2023-01-20T16:23:59.024Z,67.88
2023-01-20T16:26:28.288Z,66.63
2023-01-20T16:28:57.408Z,61.90
2023-01-20T16:31:25.550Z,67.93
2023-01-20T16:33:53.424Z,66.75
2023-01-20T16:36:23.125Z,64.75
2023-01-20T16:38:50.633Z,70.32
2023-01-20T16:41:25.931Z,68.50
2023-01-20T16:43:54.058Z,69.05
2023-01-20T16:46:22.254Z,72.10
2023-01-20T16:48:49.601Z,73.32
2023-01-20T16:51:18.999Z,67.45
2023-01-20T16:53:45.631Z,75.53
2023-01-20T16:56:15.208Z,79.10
2023-01-20T16:58:42.464Z,71.55
2023-01-20T17:01:12.079Z,67.28
2023-01-20T17:03:39.996Z,65.75
2023-01-20T17:06:11.032Z,70.28
2023-01-20T17:08:37.680Z,66.07
2023-01-20T17:11:04.401Z,71.03
2023-01-20T17:13:30.988Z,74.07
2023-01-20T17:15:59.226Z,75.47
2023-01-20T17:18:25.854Z,69.80
2023-01-20T17:20:55.734Z,70.15
2023-01-20T17:23:22.310Z,71.82
2023-01-20T17:25:48.919Z,77.78
2023-01-20T17:28:15.561Z,75.65
2023-01-20T17:30:42.234Z,68.45
2023-01-20T17:33:08.835Z,79.93
2023-01-20T17:35:35.418Z,74.13
2023-01-20T17:38:01.998Z,75.95
2023-01-20T17:40:28.626Z,73.53
2023-01-20T17:42:55.301Z,68.45
2023-01-20T17:45:21.918Z,68.68
2023-01-20T17:47:51.191Z,75.05
2023-01-20T17:50:18.398Z,69.25
2023-01-20T17:52:45.105Z,72.78
2023-01-20T17:55:11.749Z,74.55
2023-01-20T17:57:38.309Z,72.53
2023-01-20T18:00:06.325Z,71.72
2023-01-20T18:02:32.961Z,76.18
2023-01-20T18:04:59.606Z,75.72
2023-01-20T18:07:26.198Z,79.20
2023-01-20T18:09:52.838Z,71.93
2023-01-20T18:12:21.496Z,71.55
2023-01-20T18:14:48.173Z,75.38
2023-01-20T18:17:14.805Z,74.97
2023-01-20T18:19:41.407Z,75.97
2023-01-20T18:22:10.280Z,80.63
2023-01-20T18:24:37.014Z,73.70
2023-01-20T18:27:03.659Z,81.68
2023-01-20T18:29:30.241Z,80.43
2023-01-20T18:31:58.175Z,76.30
2023-01-20T18:34:25.000Z,81.90
2023-01-20T18:36:51.955Z,78.55
2023-01-20T18:39:21.120Z,78.53
2023-01-20T18:41:48.659Z,80.55
2023-01-20T18:44:16.182Z,77.55
2023-01-20T18:46:42.856Z,77.78
2023-01-20T18:49:13.649Z,78.25
2023-01-20T18:51:42.318Z,77.65
2023-01-20T18:54:12.416Z,83.30
2023-01-20T18:56:40.057Z,76.07
2023-01-20T18:59:07.542Z,77.95
2023-01-20T19:01:36.804Z,79.05
2023-01-20T19:04:04.555Z,82.30
2023-01-20T19:06:35.024Z,82.78
2023-01-20T19:09:01.798Z,84.47
2023-01-20T19:11:31.645Z,81.65
2023-01-20T19:13:59.176Z,79.47
2023-01-20T19:16:29.231Z,75.57
2023-01-20T19:18:57.920Z,81.90
2023-01-20T19:21:25.741Z,78.13
2023-01-20T19:23:55.015Z,76.60
2023-01-20T19:26:23.714Z,82.93
2023-01-20T19:29:11.797Z,79.78
2023-01-20T19:31:40.086Z,74.13
2023-01-20T19:34:08.272Z,78.60
2023-01-20T19:36:35.210Z,77.95
2023-01-20T19:39:01.942Z,75.38
2023-01-20T19:41:33.236Z,74.05
2023-01-20T19:44:01.267Z,71.07
2023-01-20T19:46:30.110Z,74.57
2023-01-20T19:48:58.348Z,75.35
2023-01-20T19:51:25.835Z,80.15
2023-01-20T19:53:58.145Z,82.43
2023-01-20T19:56:26.848Z,75.85
2023-01-20T19:58:57.855Z,74.35
2023-01-20T20:01:31.811Z,80.47
2023-01-20T20:03:59.550Z,78.00
2023-01-20T20:06:46.179Z,76.75
2023-01-20T20:09:17.649Z,74.97
2023-01-20T20:11:44.703Z,73.10
2023-01-20T20:14:13.964Z,74.80
2023-01-20T20:16:40.989Z,74.95
2023-01-20T20:19:11.424Z,69.90
2023-01-20T20:21:38.045Z,66.22
2023-01-20T20:24:06.155Z,74.30
2023-01-20T20:26:36.138Z,80.53
2023-01-20T20:29:04.837Z,72.25
2023-01-20T20:31:32.293Z,76.20
2023-01-20T20:33:59.931Z,75.28
2023-01-20T20:36:29.504Z,68.22
2023-01-20T20:38:57.776Z,75.10
2023-01-20T20:41:28.893Z,68.43
2023-01-20T20:43:57.562Z,72.50
2023-01-20T20:46:25.381Z,72.55
2023-01-20T20:48:54.783Z,65.15
2023-01-20T20:51:23.773Z,68.75
2023-01-20T20:53:53.967Z,66.63
2023-01-20T20:56:20.872Z,72.28
2023-01-20T20:59:00.565Z,74.95
2023-01-20T21:01:29.500Z,74.35
2023-01-20T21:03:57.890Z,72.45
2023-01-20T21:06:24.951Z,80.57
2023-01-20T21:08:51.979Z,74.18
2023-01-20T21:11:20.125Z,76.00
2023-01-20T21:13:49.138Z,72.32
2023-01-20T21:16:20.728Z,76.03
2023-01-20T21:18:47.832Z,77.35
2023-01-20T21:21:17.486Z,81.90
2023-01-20T21:23:48.631Z,73.65
2023-01-20T21:26:15.573Z,76.43
2023-01-20T21:28:43.075Z,75.28
2023-01-20T21:31:11.373Z,67.82
2023-01-20T21:33:39.001Z,74.82
2023-01-20T21:36:07.322Z,73.50
2023-01-20T21:38:34.075Z,74.22
2023-01-20T21:41:04.973Z,81.13
2023-01-20T21:43:48.767Z,75.68
2023-01-20T21:46:15.758Z,76.68
2023-01-20T21:48:57.758Z,86.85
2023-01-20T21:51:39.604Z,83.95
2023-01-20T21:54:06.156Z,80.28
2023-01-20T21:56:32.763Z,85.13
2023-01-20T21:58:59.308Z,82.75
2023-01-20T22:01:25.920Z,83.65
2023-01-20T22:03:52.502Z,77.28
2023-01-20T22:06:19.146Z,76.72
2023-01-20T22:08:45.757Z,83.93
2023-01-20T22:11:12.305Z,80.53
2023-01-20T22:13:38.882Z,80.32
2023-01-20T22:16:06.036Z,80.00
2023-01-20T22:18:32.630Z,85.15
2023-01-20T22:21:02.225Z,81.53
2023-01-20T22:23:31.542Z,80.28
2023-01-20T22:25:58.162Z,81.38
2023-01-20T22:28:24.884Z,81.82
2023-01-20T22:30:51.656Z,85.53
2023-01-20T22:33:18.228Z,80.88
2023-01-20T22:35:44.774Z,82.32
2023-01-20T22:38:11.356Z,78.97
2023-01-20T22:40:37.904Z,90.30
2023-01-20T22:43:04.647Z,77.30
2023-01-20T22:45:31.255Z,77.50
2023-01-20T22:47:57.947Z,78.47
2023-01-20T22:50:24.472Z,80.07
2023-01-20T22:52:51.030Z,76.00
2023-01-20T22:55:17.594Z,84.78
2023-01-20T22:57:44.250Z,78.10
2023-01-20T23:00:12.197Z,75.30
2023-01-20T23:02:39.161Z,81.00
2023-01-20T23:05:05.936Z,83.25
2023-01-20T23:07:34.705Z,75.55
2023-01-20T23:10:01.305Z,75.53
2023-01-20T23:12:28.128Z,75.60
2023-01-20T23:15:02.655Z,77.00
2023-01-20T23:17:31.065Z,77.45
2023-01-20T23:19:58.187Z,74.22
2023-01-20T23:22:24.785Z,78.13
2023-01-20T23:24:51.398Z,78.38
2023-01-20T23:27:17.997Z,75.55
2023-01-20T23:29:44.608Z,72.43
2023-01-20T23:32:11.185Z,71.07
2023-01-20T23:34:37.762Z,73.47
2023-01-20T23:37:04.368Z,72.28
2023-01-20T23:39:30.977Z,76.40
2023-01-20T23:41:57.933Z,72.22
2023-01-20T23:44:24.494Z,76.20
2023-01-20T23:46:51.073Z,72.28
2023-01-20T23:49:17.633Z,73.53
2023-01-20T23:51:44.196Z,78.85
2023-01-20T23:54:13.279Z,72.10
2023-01-20T23:56:40.175Z,77.28
2023-01-20T23:59:09.959Z,68.75
